Time;durP1;ratioP1;P1;durP2;ratioP2;P2;SDS_P1;SDS_P2;PMS_P1;PMS_P2;Temp;Humidity;BMP_temperature;BMP_pressure;BME280_temperature;BME280_humidity;BME280_pressure;Samples;Min_cycle;Max_cycle;Signal;HPM_P1;HPM_P2
2023/09/23 00:00:36;;;;;;;12.82;5.43;;;;;;;19.77;99.23;93189.50;5113413;27;20051;-81
2023/09/23 00:03:04;;;;;;;12.70;4.25;;;;;;;19.83;100.00;93200.69;5111999;27;20100;-81
2023/09/23 00:05:33;;;;;;;12.73;5.38;;;;;;;19.83;99.96;93198.06;5109722;28;20128;-81
2023/09/23 00:08:00;;;;;;;10.18;4.97;;;;;;;19.79;100.00;93200.44;5110322;27;20547;-81
2023/09/23 00:10:27;;;;;;;15.05;5.35;;;;;;;19.73;100.00;93198.91;5110274;28;20055;-82
2023/09/23 00:12:55;;;;;;;11.98;4.80;;;;;;;19.71;100.00;93201.78;5114540;27;20047;-82
2023/09/23 00:15:23;;;;;;;12.10;5.05;;;;;;;19.65;100.00;93194.22;5111919;27;20098;-82
2023/09/23 00:17:53;;;;;;;8.50;4.38;;;;;;;19.46;100.00;93190.41;5121414;27;20055;-82
2023/09/23 00:20:21;;;;;;;11.93;4.90;;;;;;;19.36;100.00;93167.00;5111989;27;20047;-83
2023/09/23 00:22:54;;;;;;;15.15;4.82;;;;;;;19.45;100.00;93196.63;5111342;27;20142;-82
2023/09/23 00:25:23;;;;;;;13.65;4.88;;;;;;;19.43;100.00;93201.34;5112166;27;20074;-82
2023/09/23 00:27:54;;;;;;;9.73;5.07;;;;;;;19.36;100.00;93191.19;5109368;27;20040;-82
2023/09/23 00:30:23;;;;;;;10.13;4.68;;;;;;;19.30;100.00;93189.66;5109599;27;20047;-82
2023/09/23 00:32:50;;;;;;;8.60;4.35;;;;;;;19.32;100.00;93198.00;5109657;27;20101;-82
2023/09/23 00:35:18;;;;;;;10.77;5.70;;;;;;;19.31;100.00;93193.03;5111644;27;20048;-80
2023/09/23 00:37:48;;;;;;;10.18;4.63;;;;;;;19.33;100.00;93183.13;5111840;27;20047;-80
2023/09/23 00:40:17;;;;;;;12.55;4.70;;;;;;;19.28;100.00;93186.53;5110132;27;20047;-80
2023/09/23 00:42:47;;;;;;;7.70;4.40;;;;;;;19.29;100.00;93188.09;5114603;27;20044;-81
2023/09/23 00:45:16;;;;;;;10.73;5.18;;;;;;;19.26;100.00;93177.44;5112201;27;20471;-81
2023/09/23 00:47:46;;;;;;;14.48;6.20;;;;;;;19.29;100.00;93177.69;5109580;27;20138;-81
2023/09/23 00:50:18;;;;;;;8.80;4.47;;;;;;;19.33;100.00;93177.94;5110945;27;20044;-80
2023/09/23 00:52:48;;;;;;;13.35;4.95;;;;;;;19.35;100.00;93181.81;5108959;27;20101;-81
2023/09/23 00:55:17;;;;;;;14.90;5.20;;;;;;;19.33;100.00;93190.94;5109393;27;20101;-81
2023/09/23 00:57:48;;;;;;;11.27;4.78;;;;;;;19.27;100.00;93171.19;5108394;27;20074;-81
2023/09/23 01:00:23;;;;;;;10.32;4.80;;;;;;;19.24;100.00;93167.28;5108117;28;20581;-81
2023/09/23 01:02:55;;;;;;;11.88;5.03;;;;;;;19.31;100.00;93180.03;5109109;27;20051;-81
2023/09/23 01:05:23;;;;;;;11.18;4.70;;;;;;;19.29;100.00;93179.50;5109111;27;20507;-81
2023/09/23 01:07:51;;;;;;;9.85;4.53;;;;;;;19.28;100.00;93176.13;5109192;27;20050;-84
2023/09/23 01:10:18;;;;;;;12.02;4.78;;;;;;;19.16;100.00;93160.78;5118945;27;20062;-84
2023/09/23 01:12:46;;;;;;;12.60;5.32;;;;;;;19.17;100.00;93183.16;5127300;27;20128;-82
2023/09/23 01:15:16;;;;;;;15.90;4.95;;;;;;;19.11;100.00;93173.03;5127616;27;20050;-83
2023/09/23 01:17:49;;;;;;;14.13;5.65;;;;;;;19.08;100.00;93182.16;5121343;27;20503;-83
2023/09/23 01:20:17;;;;;;;11.02;4.85;;;;;;;19.01;100.00;93168.59;5108385;27;20054;-83
2023/09/23 01:22:47;;;;;;;11.52;5.40;;;;;;;18.76;100.00;93155.38;5109031;27;20044;-85
2023/09/23 01:25:14;;;;;;;13.25;5.63;;;;;;;18.64;100.00;93155.63;5113168;27;20040;-82
2023/09/23 01:27:40;;;;;;;12.00;5.05;;;;;;;18.65;100.00;93172.78;5127081;27;20615;-82
2023/09/23 01:30:12;;;;;;;10.85;4.90;;;;;;;18.59;100.00;93173.84;5127259;27;20047;-82
2023/09/23 01:32:46;;;;;;;10.50;4.78;;;;;;;18.43;100.00;93160.06;5125581;27;20513;-81
2023/09/23 01:35:15;;;;;;;10.23;4.90;;;;;;;18.52;100.00;93176.69;5112386;27;20082;-81
2023/09/23 01:37:45;;;;;;;9.82;5.15;;;;;;;18.47;100.00;93179.28;5108776;27;20050;-81
2023/09/23 01:40:16;;;;;;;13.32;5.35;;;;;;;18.45;100.00;93177.97;5109965;27;20058;-82
2023/09/23 01:42:44;;;;;;;12.93;6.13;;;;;;;18.42;100.00;93180.06;5109561;27;20043;-81
2023/09/23 01:45:13;;;;;;;13.07;5.43;;;;;;;18.43;100.00;93178.25;5121869;27;20156;-82
2023/09/23 01:47:40;;;;;;;13.57;5.90;;;;;;;18.45;100.00;93183.19;5122794;27;20039;-81
2023/09/23 01:50:09;;;;;;;13.30;5.28;;;;;;;18.44;100.00;93179.81;5119298;27;20047;-81
2023/09/23 01:52:36;;;;;;;13.93;5.55;;;;;;;18.43;100.00;93173.81;5118873;27;20114;-81
2023/09/23 01:55:05;;;;;;;13.15;5.25;;;;;;;18.41;100.00;93172.53;5116829;27;20565;-81
2023/09/23 01:57:33;;;;;;;13.48;5.63;;;;;;;18.42;100.00;93174.88;5119072;27;20054;-80
2023/09/23 02:00:01;;;;;;;10.88;5.90;;;;;;;18.35;100.00;93182.16;5121844;27;20055;-80
2023/09/23 02:02:28;;;;;;;11.93;5.65;;;;;;;18.25;100.00;93159.53;5120582;27;20903;-80
2023/09/23 02:04:56;;;;;;;18.10;5.82;;;;;;;18.24;100.00;93163.16;5118689;27;20054;-78
2023/09/23 02:07:23;;;;;;;14.43;5.43;;;;;;;18.34;100.00;93180.59;5121585;27;20103;-78
2023/09/23 02:09:50;;;;;;;11.35;5.50;;;;;;;18.29;100.00;93181.34;5118332;28;20420;-79
2023/09/23 02:12:18;;;;;;;13.57;5.60;;;;;;;18.13;100.00;93161.56;5117515;28;20043;-78
2023/09/23 02:14:45;;;;;;;12.13;6.85;;;;;;;18.11;100.00;93164.44;5120902;28;20043;-78
2023/09/23 02:17:12;;;;;;;12.13;5.80;;;;;;;18.16;100.00;93187.06;5120242;28;20051;-78
2023/09/23 02:19:39;;;;;;;10.90;5.18;;;;;;;18.09;100.00;93182.09;5119953;28;20394;-79
2023/09/23 02:22:06;;;;;;;20.25;6.00;;;;;;;18.02;100.00;93182.31;5119853;28;20040;-80
2023/09/23 02:24:33;;;;;;;12.85;6.15;;;;;;;17.93;100.00;93176.06;5120415;28;20058;-79
2023/09/23 02:27:00;;;;;;;9.75;5.53;;;;;;;17.86;100.00;93176.31;5118716;28;20043;-80
2023/09/23 02:29:28;;;;;;;12.32;6.40;;;;;;;17.94;100.00;93185.44;5120809;28;20043;-79
2023/09/23 02:31:55;;;;;;;15.20;5.82;;;;;;;17.94;100.00;93182.81;5118148;28;20047;-79
2023/09/23 02:34:22;;;;;;;12.57;6.22;;;;;;;17.94;100.00;93187.22;5119616;28;20051;-79
2023/09/23 02:36:51;;;;;;;12.48;5.50;;;;;;;17.92;100.00;93184.91;5110686;28;20054;-80
2023/09/23 02:39:20;;;;;;;17.67;6.40;;;;;;;17.91;100.00;93185.91;5109411;28;20045;-80
2023/09/23 02:41:47;;;;;;;14.32;5.78;;;;;;;17.89;100.00;93181.00;5108842;28;20046;-80
2023/09/23 02:44:18;;;;;;;15.63;5.82;;;;;;;17.93;100.00;93183.88;5112664;28;20044;-80
2023/09/23 02:46:47;;;;;;;17.73;6.10;;;;;;;17.88;100.00;93189.81;5106310;28;20055;-80
2023/09/23 02:49:14;;;;;;;14.23;5.68;;;;;;;17.94;100.00;93190.63;5110803;28;20043;-80
2023/09/23 02:51:42;;;;;;;11.02;5.50;;;;;;;17.98;100.00;93189.09;5108186;28;20040;-80
2023/09/23 02:54:10;;;;;;;15.63;6.28;;;;;;;17.82;100.00;93183.03;5107722;28;20079;-80
2023/09/23 02:56:38;;;;;;;10.43;6.40;;;;;;;17.73;100.00;93169.00;5097586;28;20532;-79
2023/09/23 02:59:11;;;;;;;17.48;6.43;;;;;;;17.74;100.00;93194.69;5110068;28;20051;-79
2023/09/23 03:01:39;;;;;;;11.65;5.90;;;;;;;17.70;100.00;93187.69;5107075;28;20120;-78
2023/09/23 03:04:16;;;;;;;11.60;6.32;;;;;;;17.69;100.00;93191.31;5106658;28;20051;-78
2023/09/23 03:06:49;;;;;;;11.98;5.18;;;;;;;17.60;100.00;93204.78;5106282;28;20092;-81
2023/09/23 03:09:19;;;;;;;11.85;6.68;;;;;;;17.57;100.00;93191.53;5103666;28;20047;-82
2023/09/23 03:11:49;;;;;;;12.82;5.93;;;;;;;17.33;100.00;93182.34;5108670;28;20087;-80
2023/09/23 03:14:18;;;;;;;14.55;6.47;;;;;;;17.40;100.00;93194.31;5107069;28;20047;-79
2023/09/23 03:16:49;;;;;;;14.77;6.18;;;;;;;17.46;100.00;93195.91;5108760;28;20039;-80
2023/09/23 03:19:24;;;;;;;11.13;5.88;;;;;;;17.49;100.00;93195.38;5101099;27;20122;-79
2023/09/23 03:21:51;;;;;;;13.90;6.35;;;;;;;17.46;100.00;93196.66;5110232;27;20094;-82
2023/09/23 03:24:19;;;;;;;8.75;5.90;;;;;;;17.46;100.00;93204.47;5111255;27;20043;-81
2023/09/23 03:26:46;;;;;;;14.30;5.90;;;;;;;17.42;100.00;93198.22;5111029;27;20495;-80
2023/09/23 03:29:15;;;;;;;15.35;5.90;;;;;;;17.46;100.00;93208.88;5108264;27;20495;-81
2023/09/23 03:31:42;;;;;;;11.48;6.53;;;;;;;17.43;100.00;93207.56;5114006;27;20053;-81
2023/09/23 03:34:13;;;;;;;11.70;5.90;;;;;;;17.39;100.00;93205.75;5115264;27;20043;-81
2023/09/23 03:36:41;;;;;;;12.82;6.07;;;;;;;17.32;100.00;93206.72;5116394;27;20099;-81
2023/09/23 03:39:09;;;;;;;12.35;6.20;;;;;;;17.30;100.00;93202.81;5122830;27;20047;-81
2023/09/23 03:41:37;;;;;;;10.70;5.68;;;;;;;17.26;100.00;93202.53;5122692;27;20043;-81
2023/09/23 03:44:05;;;;;;;11.50;5.82;;;;;;;17.36;100.00;93212.22;5121984;27;20650;-80
2023/09/23 03:46:32;;;;;;;10.18;5.53;;;;;;;17.25;100.00;93205.41;5125164;27;20096;-80
2023/09/23 03:49:00;;;;;;;12.65;6.28;;;;;;;17.29;100.00;93217.63;5123334;27;20044;-80
2023/09/23 03:51:27;;;;;;;13.50;6.38;;;;;;;17.31;100.00;93215.56;5122495;27;20543;-81
2023/09/23 03:53:56;;;;;;;15.82;6.60;;;;;;;17.25;100.00;93213.97;5120725;27;20047;-79
2023/09/23 03:56:24;;;;;;;11.65;5.88;;;;;;;17.24;100.00;93212.41;5121637;27;20047;-80
2023/09/23 03:58:52;;;;;;;13.48;6.45;;;;;;;17.27;100.00;93219.66;5121115;27;20906;-79
2023/09/23 04:01:21;;;;;;;10.50;5.38;;;;;;;17.30;100.00;93226.97;5121310;27;20082;-79
2023/09/23 04:03:48;;;;;;;12.65;6.13;;;;;;;17.25;100.00;93228.78;5121461;27;20047;-81
2023/09/23 04:06:15;;;;;;;14.27;5.70;;;;;;;17.19;100.00;93231.34;5121302;27;20507;-80
2023/09/23 04:08:42;;;;;;;12.95;5.55;;;;;;;17.13;100.00;93229.72;5122007;27;20048;-82
2023/09/23 04:11:14;;;;;;;12.20;6.32;;;;;;;17.15;100.00;93239.84;5122019;27;20039;-79
2023/09/23 04:13:41;;;;;;;11.77;5.35;;;;;;;17.15;100.00;93243.25;5119521;27;20041;-82
2023/09/23 04:16:09;;;;;;;11.23;5.40;;;;;;;17.08;100.00;93245.28;5123591;27;20798;-79
2023/09/23 04:18:36;;;;;;;17.63;6.55;;;;;;;17.01;100.00;93250.63;5120755;27;20088;-79
2023/09/23 04:21:03;;;;;;;11.23;5.88;;;;;;;16.82;100.00;93234.66;5118897;27;20059;-78
2023/09/23 04:23:30;;;;;;;11.02;6.25;;;;;;;16.77;100.00;93238.00;5110704;27;20056;-77
2023/09/23 04:25:57;;;;;;;14.82;6.65;;;;;;;16.79;100.00;93263.69;5110513;27;20487;-77
2023/09/23 04:28:25;;;;;;;12.90;5.85;;;;;;;16.79;100.00;93255.91;5112526;27;20669;-80
2023/09/23 04:30:54;;;;;;;12.50;6.70;;;;;;;16.78;100.00;93259.53;5109263;27;20043;-79
2023/09/23 04:33:21;;;;;;;10.23;5.68;;;;;;;16.79;100.00;93266.28;5127088;27;20088;-80
2023/09/23 04:35:48;;;;;;;12.90;6.22;;;;;;;16.75;100.00;93273.00;5115333;27;20051;-79
2023/09/23 04:38:15;;;;;;;15.55;6.70;;;;;;;16.74;100.00;93277.41;5113536;27;20540;-79
2023/09/23 04:40:42;;;;;;;17.30;7.18;;;;;;;16.73;100.00;93277.63;5124766;27;20103;-79
2023/09/23 04:43:10;;;;;;;16.73;6.70;;;;;;;16.73;100.00;93288.81;5111939;27;20061;-79
2023/09/23 04:45:38;;;;;;;11.18;6.03;;;;;;;16.76;100.00;93285.72;5112518;27;20094;-78
2023/09/23 04:48:06;;;;;;;10.38;6.15;;;;;;;16.72;100.00;93289.84;5112430;27;20051;-79
2023/09/23 04:50:33;;;;;;;17.70;6.60;;;;;;;16.72;100.00;93289.84;5111870;27;20123;-79
2023/09/23 04:53:00;;;;;;;11.32;6.25;;;;;;;16.72;100.00;93286.44;5111105;27;20058;-80
2023/09/23 04:55:28;;;;;;;12.30;6.30;;;;;;;16.70;100.00;93291.88;5110707;27;20047;-79
2023/09/23 04:57:55;;;;;;;10.80;6.13;;;;;;;16.72;100.00;93289.84;5111918;27;20048;-79
2023/09/23 05:00:23;;;;;;;16.80;7.00;;;;;;;16.79;100.00;93298.19;5117417;27;20051;-79
2023/09/23 05:02:52;;;;;;;12.70;6.25;;;;;;;16.70;100.00;93282.31;5109178;27;20040;-79
2023/09/23 05:05:18;;;;;;;13.45;6.55;;;;;;;16.88;100.00;93302.94;5113508;27;20051;-80
2023/09/23 05:07:45;;;;;;;11.75;6.15;;;;;;;16.89;100.00;93292.31;5109270;27;20047;-79
2023/09/23 05:10:12;;;;;;;11.77;6.28;;;;;;;16.97;100.00;93296.28;5111463;27;20047;-78
2023/09/23 05:12:40;;;;;;;13.20;5.90;;;;;;;17.04;100.00;93296.09;5109042;27;20051;-78
2023/09/23 05:15:10;;;;;;;12.90;6.57;;;;;;;17.01;100.00;93283.56;5109177;27;20054;-78
2023/09/23 05:17:37;;;;;;;16.45;6.88;;;;;;;17.11;100.00;93304.44;5112005;27;20042;-78
2023/09/23 05:20:19;;;;;;;15.43;5.97;;;;;;;17.21;100.00;93298.56;5108219;27;20138;-78
2023/09/23 05:22:46;;;;;;;16.13;6.38;;;;;;;17.23;100.00;93299.88;5108817;27;20508;-79
2023/09/23 05:25:13;;;;;;;14.00;6.10;;;;;;;17.26;100.00;93301.19;5110039;27;20086;-79
2023/09/23 05:27:40;;;;;;;12.40;6.07;;;;;;;17.30;100.00;93296.28;5111710;27;20075;-76
2023/09/23 05:30:08;;;;;;;20.73;6.82;;;;;;;17.42;100.00;93309.88;5110848;27;20522;-77
2023/09/23 05:32:37;;;;;;;17.25;7.15;;;;;;;17.40;100.00;93292.97;5108341;27;20469;-77
2023/09/23 05:35:09;;;;;;;12.85;5.80;;;;;;;17.49;100.00;93302.66;5112774;27;20397;-77
2023/09/23 05:37:36;;;;;;;20.88;7.40;;;;;;;17.55;100.00;93303.44;5109635;27;20063;-82
2023/09/23 05:40:18;;;;;;;15.85;7.85;;;;;;;17.64;100.00;93303.78;5111170;27;20054;-80
2023/09/23 05:42:47;;;;;;;18.13;7.47;;;;;;;17.72;100.00;93300.69;5122737;27;20044;-79
2023/09/23 05:45:14;;;;;;;16.30;7.68;;;;;;;17.71;100.00;93306.13;5109602;27;20051;-80
2023/09/23 05:47:42;;;;;;;18.17;8.15;;;;;;;17.76;100.00;93301.75;5111706;27;20047;-80
2023/09/23 05:50:10;;;;;;;14.50;6.63;;;;;;;17.71;100.00;93295.75;5108343;27;20844;-82
2023/09/23 05:52:37;;;;;;;24.08;8.10;;;;;;;17.75;100.00;93295.00;5109654;27;20495;-78
2023/09/23 05:55:05;;;;;;;15.90;6.85;;;;;;;17.70;100.00;93300.19;5111425;27;20051;-78
2023/09/23 05:57:34;;;;;;;18.13;7.90;;;;;;;17.69;100.00;93303.78;5110177;27;20044;-79
2023/09/23 06:00:05;;;;;;;16.13;8.48;;;;;;;17.67;100.00;93295.47;5119657;27;20096;-79
2023/09/23 06:02:31;;;;;;;19.70;8.55;;;;;;;17.69;100.00;93297.81;5126363;27;20166;-79
2023/09/23 06:05:01;;;;;;;21.10;8.27;;;;;;;17.60;100.00;93285.28;5107438;28;20047;-79
2023/09/23 06:07:31;;;;;;;24.42;10.18;;;;;;;17.68;100.00;93281.44;5110231;27;20051;-79
2023/09/23 06:09:59;;;;;;;20.63;9.45;;;;;;;17.92;100.00;93299.25;5107057;28;20051;-80
2023/09/23 06:12:29;;;;;;;19.80;8.45;;;;;;;17.91;100.00;93287.28;5107722;28;20523;-80
2023/09/23 06:14:57;;;;;;;24.55;11.07;;;;;;;18.10;100.00;93299.88;5107661;28;20124;-80
2023/09/23 06:17:24;;;;;;;16.90;9.25;;;;;;;18.27;100.00;93299.66;5108208;28;20048;-80
2023/09/23 06:19:51;;;;;;;18.80;8.57;;;;;;;18.45;100.00;93293.22;5108726;28;20467;-79
2023/09/23 06:22:18;;;;;;;19.20;8.82;;;;;;;18.61;100.00;93303.66;5107727;28;20575;-78
2023/09/23 06:24:49;;;;;;;17.50;9.88;;;;;;;18.74;100.00;93300.53;5108089;28;20039;-78
2023/09/23 06:27:16;;;;;;;23.15;9.50;;;;;;;18.95;100.00;93296.16;5107499;28;20040;-77
2023/09/23 06:29:43;;;;;;;15.60;8.30;;;;;;;19.13;100.00;93304.53;5111821;28;20433;-78
2023/09/23 06:32:10;;;;;;;22.38;9.93;;;;;;;19.30;100.00;93309.44;5107583;28;20040;-78
2023/09/23 06:34:37;;;;;;;24.95;8.30;;;;;;;19.47;100.00;93313.59;5109699;28;20047;-77
2023/09/23 06:37:04;;;;;;;20.58;8.65;;;;;;;19.63;100.00;93315.13;5107601;28;20062;-77
2023/09/23 06:39:31;;;;;;;27.85;8.75;;;;;;;19.81;100.00;93307.81;5106996;28;20047;-78
2023/09/23 06:41:59;;;;;;;21.45;9.23;;;;;;;19.90;100.00;93302.81;5107474;28;20058;-78
2023/09/23 06:44:26;;;;;;;32.53;10.07;;;;;;;20.03;100.00;93309.34;5117775;28;20186;-78
2023/09/23 06:46:53;;;;;;;36.95;10.07;;;;;;;20.25;100.00;93308.22;5116291;28;20062;-78
2023/09/23 06:49:19;;;;;;;31.80;9.25;;;;;;;20.39;100.00;93301.38;5115992;28;20055;-78
2023/09/23 06:51:46;;;;;;;22.20;8.65;;;;;;;20.61;100.00;93317.69;5120089;28;20134;-77
2023/09/23 06:54:13;;;;;;;36.65;9.85;;;;;;;20.79;100.00;93327.50;5115707;27;20086;-79
2023/09/23 06:56:40;;;;;;;40.13;10.40;;;;;;;20.94;100.00;93325.88;5123213;27;20626;-79
2023/09/23 06:59:08;;;;;;;37.47;10.65;;;;;;;21.15;100.00;93329.13;5118715;27;20415;-78
2023/09/23 07:01:36;;;;;;;38.03;10.68;;;;;;;21.29;100.00;93329.28;5116086;27;20128;-78
2023/09/23 07:04:04;;;;;;;37.25;11.82;;;;;;;21.45;100.00;93327.34;5114652;27;20054;-78
2023/09/23 07:06:31;;;;;;;30.75;11.15;;;;;;;21.63;99.42;93331.06;5113350;27;20051;-78
2023/09/23 07:08:58;;;;;;;36.83;11.02;;;;;;;21.78;98.32;93337.25;5121359;27;20051;-78
2023/09/23 07:11:24;;;;;;;32.28;10.15;;;;;;;21.93;98.56;93327.69;5119914;27;20043;-78
2023/09/23 07:13:51;;;;;;;36.40;10.13;;;;;;;21.94;95.81;93335.25;5110868;27;20043;-78
2023/09/23 07:16:19;;;;;;;32.83;9.40;;;;;;;21.97;96.20;93331.28;5115583;27;20537;-79
2023/09/23 07:18:46;;;;;;;30.30;10.23;;;;;;;22.18;96.52;93329.25;5116297;27;20055;-78
2023/09/23 07:21:13;;;;;;;29.20;9.55;;;;;;;22.41;95.05;93332.88;5110845;27;20052;-79
2023/09/23 07:23:40;;;;;;;30.30;9.88;;;;;;;22.41;94.91;93326.91;5115088;27;20438;-78
2023/09/23 07:26:07;;;;;;;29.65;9.23;;;;;;;22.50;94.81;93327.81;5113203;27;20054;-79
2023/09/23 07:28:34;;;;;;;23.98;8.02;;;;;;;22.69;93.16;93321.84;5111920;27;20090;-79
2023/09/23 07:31:00;;;;;;;31.15;9.63;;;;;;;22.93;91.20;93332.25;5113394;27;20547;-79
2023/09/23 07:33:29;;;;;;;21.23;9.98;;;;;;;23.00;89.93;93333.72;5110904;27;20047;-79
2023/09/23 07:35:55;;;;;;;22.45;7.47;;;;;;;23.16;88.48;93336.91;5110166;27;20055;-78
2023/09/23 07:38:22;;;;;;;20.95;7.72;;;;;;;23.31;89.84;93336.69;5112956;27;20055;-78
2023/09/23 07:40:50;;;;;;;18.23;7.65;;;;;;;23.48;88.00;93336.13;5110451;27;20051;-78
2023/09/23 07:43:17;;;;;;;20.83;7.18;;;;;;;23.72;88.62;93334.44;5110999;27;20120;-77
2023/09/23 07:45:44;;;;;;;23.63;7.72;;;;;;;23.98;86.96;93328.75;5111373;27;20051;-78
2023/09/23 07:48:10;;;;;;;14.57;6.70;;;;;;;24.13;86.90;93335.59;5115595;27;20054;-78
2023/09/23 07:50:39;;;;;;;20.95;7.25;;;;;;;24.45;87.20;93333.13;5112265;27;20122;-78
2023/09/23 07:53:05;;;;;;;21.90;7.13;;;;;;;24.74;85.68;93330.16;5112567;27;20052;-78
2023/09/23 07:55:32;;;;;;;17.85;4.35;;;;;;;25.04;79.96;93337.69;5114708;27;20043;-79
2023/09/23 07:57:59;;;;;;;13.05;4.35;;;;;;;25.36;74.28;93338.53;5110983;27;20054;-79
2023/09/23 08:00:26;;;;;;;15.27;3.75;;;;;;;25.65;70.79;93339.19;5112403;27;20411;-79
2023/09/23 08:02:53;;;;;;;13.60;3.42;;;;;;;25.92;67.90;93340.09;5119392;27;20077;-78
2023/09/23 08:05:23;;;;;;;20.13;5.35;;;;;;;26.14;67.23;93339.25;5118843;27;20136;-78
2023/09/23 08:07:52;;;;;;;13.77;3.50;;;;;;;26.36;65.48;93342.91;5114692;27;20105;-79
2023/09/23 08:10:19;;;;;;;20.13;3.90;;;;;;;26.54;64.43;93333.97;5111539;27;20051;-78
2023/09/23 08:12:46;;;;;;;11.52;3.03;;;;;;;26.77;63.68;93325.94;5110307;27;20058;-78
2023/09/23 08:15:13;;;;;;;16.83;4.85;;;;;;;26.99;62.07;93331.41;5117096;27;20097;-77
2023/09/23 08:17:41;;;;;;;17.90;3.95;;;;;;;27.18;61.82;93337.13;5115627;27;20048;-77
2023/09/23 08:20:17;;;;;;;11.95;3.47;;;;;;;27.24;61.27;93316.66;5110584;27;20043;-77
2023/09/23 08:22:45;;;;;;;11.38;3.42;;;;;;;27.46;60.28;93325.47;5112007;27;20078;-79
2023/09/23 08:25:13;;;;;;;10.95;3.53;;;;;;;27.66;59.79;93328.53;5112084;27;20051;-78
2023/09/23 08:27:41;;;;;;;13.90;3.33;;;;;;;27.92;58.85;93332.97;5113802;27;20427;-77
2023/09/23 08:30:10;;;;;;;9.80;3.67;;;;;;;28.12;58.58;93336.75;5112289;27;20051;-77
2023/09/23 08:32:37;;;;;;;12.82;3.80;;;;;;;28.30;57.55;93332.22;5112206;27;20499;-77
2023/09/23 08:35:05;;;;;;;13.23;3.67;;;;;;;28.42;57.73;93331.53;5113720;27;20048;-77
2023/09/23 08:37:32;;;;;;;14.40;2.88;;;;;;;28.68;55.99;93334.00;5114298;27;20841;-78
2023/09/23 08:39:59;;;;;;;15.80;3.20;;;;;;;28.90;55.15;93334.03;5113668;27;20602;-77
2023/09/23 08:42:27;;;;;;;11.57;3.03;;;;;;;28.98;54.53;93329.78;5112169;27;20236;-78
2023/09/23 08:44:55;;;;;;;9.30;3.50;;;;;;;29.14;54.57;93330.72;5111348;27;20047;-77
2023/09/23 08:47:22;;;;;;;12.15;3.25;;;;;;;29.27;53.35;93326.28;5113790;27;20058;-77
2023/09/23 08:49:49;;;;;;;13.43;3.38;;;;;;;29.33;52.39;93321.53;5114950;27;20066;-78
2023/09/23 08:52:17;;;;;;;11.77;3.72;;;;;;;29.51;51.81;93327.47;5118995;27;20139;-77
2023/09/23 08:54:48;;;;;;;7.72;3.00;;;;;;;29.62;49.82;93317.22;5121443;27;20395;-78
2023/09/23 08:57:16;;;;;;;15.88;3.08;;;;;;;29.85;49.59;93325.53;5109548;27;20048;-78
2023/09/23 08:59:44;;;;;;;12.07;3.20;;;;;;;30.00;51.27;93313.53;5117229;27;20047;-77
2023/09/23 09:02:17;;;;;;;13.98;3.25;;;;;;;30.09;49.56;93315.31;5111738;27;20051;-77
2023/09/23 09:04:44;;;;;;;12.65;3.28;;;;;;;30.15;49.60;93327.25;5111089;27;20089;-77
2023/09/23 09:07:11;;;;;;;11.05;2.65;;;;;;;30.32;49.85;93320.97;5109319;27;20048;-77
2023/09/23 09:09:38;;;;;;;19.05;3.50;;;;;;;30.51;48.47;93323.03;5116065;27;20043;-77
2023/09/23 09:12:06;;;;;;;12.02;3.72;;;;;;;30.69;49.35;93328.13;5120081;27;20460;-78
2023/09/23 09:14:34;;;;;;;13.30;3.35;;;;;;;30.80;48.48;93323.13;5115023;27;20047;-78
2023/09/23 09:17:02;;;;;;;10.48;3.25;;;;;;;30.83;43.79;93330.41;5109345;27;20051;-78
2023/09/23 09:19:29;;;;;;;16.45;2.55;;;;;;;30.78;41.25;93325.34;5108644;27;20047;-78
2023/09/23 09:21:57;;;;;;;9.40;3.42;;;;;;;30.76;41.04;93333.63;5108765;27;20058;-78
2023/09/23 09:24:25;;;;;;;13.80;2.75;;;;;;;30.73;41.39;93328.22;5109552;27;20495;-78
2023/09/23 09:26:53;;;;;;;17.25;3.30;;;;;;;30.81;41.81;93329.97;5114136;27;20058;-78
2023/09/23 09:29:20;;;;;;;15.68;4.65;;;;;;;30.90;41.39;93316.56;5108817;27;20052;-77
2023/09/23 09:31:50;;;;;;;13.20;2.80;;;;;;;31.03;42.18;93317.31;5110465;27;20063;-77
2023/09/23 09:34:25;;;;;;;14.90;2.83;;;;;;;30.98;40.35;93313.03;5110221;27;20070;-77
2023/09/23 09:36:56;;;;;;;14.55;4.13;;;;;;;30.83;41.17;93300.47;5116003;27;20047;-79
2023/09/23 09:39:28;;;;;;;17.52;3.40;;;;;;;30.89;42.01;93299.13;5108957;27;20078;-78
2023/09/23 09:41:56;;;;;;;12.90;3.53;;;;;;;30.72;40.00;93295.63;5110144;27;20505;-79
2023/09/23 09:44:27;;;;;;;13.05;3.33;;;;;;;30.90;41.37;93290.03;5108550;27;20051;-77
2023/09/23 09:46:56;;;;;;;15.60;3.05;;;;;;;30.98;40.58;93280.41;5108703;27;20043;-78
2023/09/23 09:49:25;;;;;;;15.27;3.53;;;;;;;30.87;39.44;93264.22;5118905;27;20054;-77
2023/09/23 09:51:53;;;;;;;10.05;3.05;;;;;;;31.16;38.08;93280.91;5108060;27;20074;-78
2023/09/23 09:54:22;;;;;;;9.88;3.35;;;;;;;31.23;40.01;93277.66;5118291;27;20048;-78
2023/09/23 09:56:53;;;;;;;13.57;3.60;;;;;;;31.23;40.29;93267.81;5114806;27;20838;-79
2023/09/23 09:59:26;;;;;;;18.23;4.15;;;;;;;31.07;40.35;93271.19;5116542;27;20920;-78
2023/09/23 10:01:57;;;;;;;13.55;2.85;;;;;;;31.13;39.70;93274.38;5117160;27;20043;-79
2023/09/23 10:04:30;;;;;;;16.88;2.95;;;;;;;31.13;40.64;93269.06;5119637;27;20043;-76
2023/09/23 10:06:57;;;;;;;15.13;2.88;;;;;;;31.06;40.02;93271.56;5112507;27;20051;-80
2023/09/23 10:09:27;;;;;;;20.88;3.67;;;;;;;31.12;40.47;93253.50;5109567;28;20507;-78
2023/09/23 10:11:56;;;;;;;13.18;3.15;;;;;;;31.24;40.16;93258.72;5108358;28;20043;-78
2023/09/23 10:14:23;;;;;;;15.52;3.60;;;;;;;31.38;40.40;93262.91;5111798;28;20047;-78
2023/09/23 10:16:51;;;;;;;18.02;4.90;;;;;;;31.43;40.15;93258.09;5111522;28;20058;-78
2023/09/23 10:19:28;;;;;;;19.23;3.75;;;;;;;31.45;40.72;93255.91;5116027;28;20053;-77
2023/09/23 10:22:08;;;;;;;18.52;3.20;;;;;;;31.31;40.39;93245.69;5111133;28;20055;-79
2023/09/23 10:24:35;;;;;;;18.10;3.00;;;;;;;31.27;39.57;93244.78;5113290;28;20059;-80
2023/09/23 10:27:05;;;;;;;15.85;3.28;;;;;;;31.27;39.60;93247.44;5110965;28;20048;-78
2023/09/23 10:29:42;;;;;;;20.27;3.58;;;;;;;31.28;40.29;93243.72;5111077;27;20640;-77
2023/09/23 10:32:14;;;;;;;15.98;3.42;;;;;;;31.14;39.29;93236.13;5113350;27;20039;-83
2023/09/23 10:34:48;;;;;;;13.77;5.00;;;;;;;31.19;38.85;93237.78;5113786;27;20086;-79
2023/09/23 10:37:26;;;;;;;15.75;3.17;;;;;;;31.29;39.71;93234.63;5114359;27;20058;-78
2023/09/23 10:39:53;;;;;;;10.98;3.20;;;;;;;31.37;40.13;93224.22;5116197;27;20050;-77
2023/09/23 10:42:20;;;;;;;18.50;4.95;;;;;;;31.57;40.07;93222.41;5117240;27;20419;-78
2023/09/23 10:44:47;;;;;;;13.13;3.53;;;;;;;31.48;39.03;93200.56;5115680;27;20054;-78
2023/09/23 10:47:15;;;;;;;18.80;3.45;;;;;;;31.66;37.45;93225.66;5113876;27;20899;-79
2023/09/23 10:49:41;;;;;;;13.05;3.05;;;;;;;31.71;37.30;93219.31;5116572;27;20083;-78
2023/09/23 10:52:09;;;;;;;14.38;5.20;;;;;;;31.78;37.65;93210.72;5115809;27;20554;-78
2023/09/23 10:54:40;;;;;;;15.52;3.28;;;;;;;31.86;36.82;93212.47;5112849;27;20054;-78
2023/09/23 10:57:07;;;;;;;14.20;3.38;;;;;;;31.82;35.66;93211.59;5119261;27;20503;-77
2023/09/23 10:59:34;;;;;;;12.45;2.85;;;;;;;31.98;36.60;93207.06;5122986;27;20047;-78
2023/09/23 11:02:01;;;;;;;12.15;3.20;;;;;;;31.94;35.80;93192.91;5115379;27;20055;-79
2023/09/23 11:04:28;;;;;;;17.90;3.03;;;;;;;32.17;36.00;93202.13;5117869;27;20047;-78
2023/09/23 11:06:56;;;;;;;15.45;4.78;;;;;;;32.30;35.66;93190.25;5121179;27;20058;-78
2023/09/23 11:09:23;;;;;;;12.40;3.33;;;;;;;32.46;35.05;93192.91;5111562;27;20128;-79
2023/09/23 11:11:51;;;;;;;12.25;3.28;;;;;;;32.56;34.31;93182.81;5111289;27;20054;-78
2023/09/23 11:14:21;;;;;;;17.77;3.47;;;;;;;32.56;35.58;93174.81;5118145;27;20048;-78
2023/09/23 11:16:48;;;;;;;19.00;5.32;;;;;;;32.40;34.60;93183.63;5122533;27;20055;-78
2023/09/23 11:19:17;;;;;;;20.13;4.40;;;;;;;32.25;35.25;93156.75;5119378;27;20055;-80
2023/09/23 11:21:46;;;;;;;12.63;3.50;;;;;;;32.52;35.47;93167.56;5110930;27;20048;-77
2023/09/23 11:24:12;;;;;;;12.38;4.03;;;;;;;32.72;35.24;93169.44;5116202;27;20599;-78